Aviation Digital Data Service (ADDS)

Output produced by METARs form (0603 UTC 18 January 2018)
found at http://www.aviationweather.gov/adds/metars/
 
EPLL 180600Z 23010KT 9999 OVC008 M00/M01 Q1002
TAF EPLL 180530Z 1806/1906 27010KT 9999 BKN012 
     TEMPO 1806/1808 BKN008 
     BECMG 1808/1811 18012KT BKN018 
     BECMG 1816/1818 18015G25KT 3000 SNRA BKN006 OVC013 
     TEMPO 1817/1824 18020G37KT 0800 BLSN SNRA OVC003 
     BECMG 1900/1902 27015KT 
     TEMPO 1900/1906 27018G32KT 1100 SHSN BKN004 BKN010CB